createdAt,value
2023-02-02T00:01:52.411Z,61.20
2023-02-02T00:04:24.244Z,60.58
2023-02-02T00:06:54.822Z,60.47
2023-02-02T00:09:24.808Z,60.77
2023-02-02T00:11:54.955Z,60.40
2023-02-02T00:14:25.254Z,60.14
2023-02-02T00:16:59.187Z,60.15
2023-02-02T00:19:31.669Z,60.07
2023-02-02T00:22:01.936Z,60.21
2023-02-02T00:24:32.258Z,59.73
2023-02-02T00:27:03.124Z,59.63
2023-02-02T00:29:34.472Z,59.58
2023-02-02T00:32:07.495Z,59.61
2023-02-02T00:34:37.528Z,59.52
2023-02-02T00:37:08.799Z,59.70
2023-02-02T00:39:38.863Z,59.52
2023-02-02T00:42:09.095Z,59.70
2023-02-02T00:44:51.965Z,60.14
2023-02-02T00:47:24.991Z,60.42
2023-02-02T00:49:54.998Z,60.56
2023-02-02T00:52:25.116Z,61.03
2023-02-02T00:54:55.241Z,60.96
2023-02-02T00:57:25.510Z,61.22
2023-02-02T00:59:56.307Z,61.12
2023-02-02T01:02:29.047Z,61.39
2023-02-02T01:04:59.064Z,61.29
2023-02-02T01:07:29.101Z,61.70
2023-02-02T01:10:15.162Z,61.72
2023-02-02T01:12:46.813Z,61.95
2023-02-02T01:15:16.923Z,61.71
2023-02-02T01:17:49.674Z,61.91
2023-02-02T01:20:22.063Z,61.93
2023-02-02T01:22:52.490Z,62.11
2023-02-02T01:25:22.998Z,62.42
2023-02-02T01:27:53.063Z,62.66
2023-02-02T01:30:23.858Z,62.85
2023-02-02T01:32:56.403Z,63.11
2023-02-02T01:35:26.609Z,63.18
2023-02-02T01:37:56.888Z,63.47
2023-02-02T01:40:27.104Z,63.11
2023-02-02T01:42:57.232Z,63.16
2023-02-02T01:45:30.716Z,63.39
2023-02-02T01:48:03.737Z,63.36
2023-02-02T01:50:36.961Z,63.64
2023-02-02T01:53:09.993Z,63.30
2023-02-02T01:55:42.530Z,63.40
2023-02-02T01:58:19.713Z,63.37
2023-02-02T02:00:50.149Z,63.28
2023-02-02T02:03:25.853Z,63.31
2023-02-02T02:06:00.477Z,63.18
2023-02-02T02:08:39.582Z,63.09
2023-02-02T02:11:10.361Z,63.10
2023-02-02T02:13:54.444Z,63.21
2023-02-02T02:16:36.207Z,63.10
2023-02-02T02:19:24.651Z,63.33
2023-02-02T02:22:15.193Z,63.36
2023-02-02T02:25:33.318Z,63.52
2023-02-02T02:28:30.704Z,63.38
2023-02-02T02:31:41.932Z,63.36
2023-02-02T02:34:20.941Z,62.82
2023-02-02T02:36:56.272Z,63.18
2023-02-02T02:39:35.278Z,62.81
2023-02-02T02:42:12.412Z,62.79
2023-02-02T02:44:44.690Z,62.63
2023-02-02T02:47:15.009Z,62.15
2023-02-02T02:49:48.932Z,62.06
2023-02-02T02:52:19.146Z,61.85
2023-02-02T02:54:52.521Z,61.84
2023-02-02T02:57:50.112Z,61.85
2023-02-02T03:00:35.476Z,61.85
2023-02-02T03:03:12.017Z,61.64
2023-02-02T03:05:53.914Z,61.53
2023-02-02T03:08:30.305Z,61.40
2023-02-02T03:11:02.415Z,61.46
2023-02-02T03:13:32.538Z,61.32
2023-02-02T03:16:02.948Z,61.59
2023-02-02T03:18:35.482Z,61.50
2023-02-02T03:21:08.526Z,61.52
2023-02-02T03:23:38.809Z,61.86
2023-02-02T03:26:09.486Z,62.30
2023-02-02T03:28:39.653Z,62.40
2023-02-02T03:31:09.992Z,62.69
2023-02-02T03:33:40.404Z,62.70
2023-02-02T03:36:13.392Z,62.84
2023-02-02T03:38:43.362Z,62.98
2023-02-02T03:41:13.604Z,62.69
2023-02-02T03:43:43.753Z,62.87
2023-02-02T03:46:13.991Z,63.01
2023-02-02T03:48:43.970Z,63.00
2023-02-02T03:51:18.077Z,63.11
2023-02-02T03:53:48.112Z,63.34
2023-02-02T03:56:19.404Z,63.15
2023-02-02T03:58:49.977Z,63.24
2023-02-02T04:01:20.025Z,63.46
2023-02-02T04:03:52.909Z,63.42
2023-02-02T04:06:25.997Z,63.28
2023-02-02T04:08:56.104Z,63.49
2023-02-02T04:11:26.056Z,63.31
2023-02-02T04:13:56.057Z,62.98
2023-02-02T04:16:26.725Z,63.03
2023-02-02T04:18:56.765Z,63.33
2023-02-02T04:21:29.365Z,63.56
2023-02-02T04:23:59.435Z,63.23
2023-02-02T04:26:29.809Z,63.09
2023-02-02T04:28:59.879Z,62.80
2023-02-02T04:31:30.129Z,62.89
2023-02-02T04:34:00.236Z,62.79
2023-02-02T04:36:32.802Z,62.62
2023-02-02T04:39:02.716Z,62.38
2023-02-02T04:41:32.792Z,62.38
2023-02-02T04:44:02.702Z,62.15
2023-02-02T04:46:32.617Z,61.93
2023-02-02T04:49:02.688Z,62.03
2023-02-02T04:51:37.688Z,61.87
2023-02-02T04:54:07.958Z,61.59
2023-02-02T04:56:38.070Z,61.72
2023-02-02T04:59:08.043Z,61.84
2023-02-02T05:01:38.045Z,61.67
2023-02-02T05:04:08.387Z,61.80
2023-02-02T05:06:40.959Z,61.98
2023-02-02T05:09:11.049Z,61.93
2023-02-02T05:11:44.495Z,61.98
2023-02-02T05:14:17.118Z,61.77
2023-02-02T05:16:47.509Z,61.97
2023-02-02T05:19:17.536Z,62.12
2023-02-02T05:21:51.330Z,62.79
2023-02-02T05:24:21.546Z,62.86
2023-02-02T05:26:52.944Z,63.27
2023-02-02T05:29:23.074Z,63.43
2023-02-02T05:31:53.149Z,63.36
2023-02-02T05:34:23.244Z,63.33
2023-02-02T05:36:55.881Z,63.55
2023-02-02T05:39:25.849Z,63.28
2023-02-02T05:41:55.958Z,63.11
2023-02-02T05:44:25.994Z,63.02
2023-02-02T05:46:56.009Z,62.87
2023-02-02T05:49:26.145Z,62.66
2023-02-02T05:52:01.017Z,62.10
2023-02-02T05:54:31.087Z,61.87
2023-02-02T05:57:01.299Z,61.79
2023-02-02T05:59:31.389Z,61.28
2023-02-02T06:02:01.390Z,61.38
2023-02-02T06:04:31.401Z,61.57
2023-02-02T06:07:03.970Z,61.56
2023-02-02T06:09:33.886Z,61.45
2023-02-02T06:12:03.900Z,60.95
2023-02-02T06:14:34.461Z,60.87
2023-02-02T06:17:04.523Z,60.86
2023-02-02T06:19:34.490Z,60.64
2023-02-02T06:22:07.354Z,60.51
2023-02-02T06:24:37.351Z,60.60
2023-02-02T06:27:07.212Z,60.84
2023-02-02T06:29:37.175Z,60.67
2023-02-02T06:32:07.574Z,60.43
2023-02-02T06:34:37.613Z,59.79
2023-02-02T06:37:10.230Z,59.67
2023-02-02T06:39:40.108Z,58.62
2023-02-02T06:42:20.863Z,58.37
2023-02-02T06:44:51.850Z,58.41
2023-02-02T06:47:21.814Z,58.13
2023-02-02T06:49:51.793Z,57.94
2023-02-02T06:52:24.344Z,57.91
2023-02-02T06:54:54.268Z,57.70
2023-02-02T06:57:24.239Z,57.51
2023-02-02T06:59:54.319Z,57.57
2023-02-02T07:02:24.698Z,57.65
2023-02-02T07:04:54.905Z,56.91
2023-02-02T07:07:27.525Z,57.23
2023-02-02T07:09:57.753Z,56.93
2023-02-02T07:12:28.489Z,56.99
2023-02-02T07:14:59.485Z,57.26
2023-02-02T07:17:29.491Z,56.70
2023-02-02T07:19:59.509Z,56.83
2023-02-02T07:22:32.051Z,56.64
2023-02-02T07:25:01.998Z,56.50
2023-02-02T07:27:33.074Z,56.64
2023-02-02T07:30:04.135Z,56.51
2023-02-02T07:32:34.079Z,56.20
2023-02-02T07:35:04.159Z,55.80
2023-02-02T07:37:38.483Z,55.79
2023-02-02T07:40:12.341Z,55.41
2023-02-02T07:42:43.512Z,55.44
2023-02-02T07:45:27.586Z,55.09
2023-02-02T07:48:01.792Z,54.76
2023-02-02T07:50:32.953Z,54.22
2023-02-02T07:53:05.485Z,54.22
2023-02-02T07:55:35.385Z,53.28
2023-02-02T07:58:05.351Z,53.85
2023-02-02T08:00:35.489Z,53.35
2023-02-02T08:03:05.491Z,53.45
2023-02-02T08:05:35.470Z,52.84
2023-02-02T08:08:08.109Z,53.01
2023-02-02T08:10:38.053Z,52.85
2023-02-02T08:13:07.974Z,52.11
2023-02-02T08:15:37.973Z,52.67
2023-02-02T08:18:08.007Z,51.67
2023-02-02T08:20:38.040Z,51.93
2023-02-02T08:23:15.766Z,51.95
2023-02-02T08:25:46.044Z,52.10
2023-02-02T08:28:15.970Z,53.46
2023-02-02T08:30:46.079Z,51.87
2023-02-02T08:33:16.249Z,50.89
2023-02-02T08:35:47.340Z,51.00
2023-02-02T08:38:19.937Z,50.79
2023-02-02T08:40:50.023Z,51.09
2023-02-02T08:43:20.066Z,51.17
2023-02-02T08:46:02.920Z,51.72
2023-02-02T08:48:34.903Z,52.41
2023-02-02T08:51:49.192Z,52.94
2023-02-02T08:54:21.779Z,53.31
2023-02-02T08:56:51.881Z,53.81
2023-02-02T08:59:21.857Z,53.12
2023-02-02T09:01:51.849Z,51.93
2023-02-02T09:04:21.771Z,51.54
2023-02-02T09:06:51.819Z,52.20
2023-02-02T09:09:24.614Z,52.48
2023-02-02T09:11:54.549Z,52.65
2023-02-02T09:14:24.445Z,53.25
2023-02-02T09:16:54.521Z,52.64
2023-02-02T09:19:24.533Z,52.94
2023-02-02T09:21:54.561Z,52.76
2023-02-02T09:24:27.172Z,52.93
2023-02-02T09:26:57.151Z,53.39
2023-02-02T09:29:27.160Z,52.77
2023-02-02T09:31:57.239Z,53.33
2023-02-02T09:34:27.292Z,53.77
2023-02-02T09:36:57.546Z,53.79
2023-02-02T09:39:30.606Z,53.48
2023-02-02T09:42:29.370Z,53.51
2023-02-02T09:45:04.627Z,52.31
2023-02-02T09:47:55.579Z,52.70
2023-02-02T09:50:38.033Z,51.68
2023-02-02T09:53:14.041Z,51.99
2023-02-02T09:55:48.093Z,49.98
2023-02-02T09:58:24.132Z,48.87
2023-02-02T10:00:59.653Z,47.49
2023-02-02T10:03:35.929Z,48.64
2023-02-02T10:06:13.754Z,49.19
2023-02-02T10:08:48.734Z,48.80
2023-02-02T10:11:32.770Z,49.76
2023-02-02T10:14:07.454Z,49.52
2023-02-02T10:16:41.139Z,47.57
2023-02-02T10:19:15.204Z,46.01
2023-02-02T10:21:51.765Z,43.78
2023-02-02T10:24:24.798Z,40.03
2023-02-02T10:27:04.181Z,37.74
2023-02-02T10:29:48.904Z,36.20
2023-02-02T10:32:25.745Z,36.05
2023-02-02T10:35:13.918Z,35.32
2023-02-02T10:37:51.380Z,34.21
2023-02-02T10:40:36.256Z,33.78
2023-02-02T10:43:35.378Z,33.70
2023-02-02T10:46:07.807Z,31.44
2023-02-02T10:48:38.743Z,28.35
2023-02-02T10:51:18.500Z,28.62
2023-02-02T10:53:53.416Z,27.60
2023-02-02T10:56:29.461Z,28.55
2023-02-02T10:59:08.924Z,29.69
2023-02-02T11:01:38.921Z,32.03
2023-02-02T11:04:21.784Z,33.63
2023-02-02T11:06:54.794Z,35.02
2023-02-02T11:09:28.617Z,35.25
2023-02-02T11:12:03.856Z,33.67
2023-02-02T11:14:45.537Z,33.65
2023-02-02T11:17:24.355Z,34.48
2023-02-02T11:19:55.964Z,35.53
2023-02-02T11:22:35.224Z,35.91
2023-02-02T11:25:08.521Z,37.29
2023-02-02T11:27:43.453Z,37.40
2023-02-02T11:30:27.958Z,38.62
2023-02-02T11:32:58.046Z,39.46
2023-02-02T11:35:29.819Z,40.06
2023-02-02T11:38:13.335Z,40.80
2023-02-02T11:40:46.664Z,41.35
2023-02-02T11:43:22.827Z,41.82
2023-02-02T11:46:02.976Z,42.08
2023-02-02T11:48:41.470Z,42.42
2023-02-02T11:51:30.180Z,42.78
2023-02-02T11:54:09.308Z,43.24
2023-02-02T11:56:45.037Z,44.84
2023-02-02T11:59:36.583Z,46.54
2023-02-02T12:02:34.107Z,47.32
2023-02-02T12:05:37.895Z,47.72
2023-02-02T12:08:19.020Z,46.69
2023-02-02T12:10:57.518Z,45.98
2023-02-02T12:14:04.568Z,46.15
2023-02-02T12:16:46.332Z,46.58
2023-02-02T12:19:43.624Z,46.68
2023-02-02T12:22:34.170Z,46.74
2023-02-02T12:25:12.708Z,46.50
2023-02-02T12:27:54.453Z,46.92
2023-02-02T12:30:36.127Z,47.76
2023-02-02T12:33:24.194Z,48.06
2023-02-02T12:36:12.377Z,48.08
2023-02-02T12:39:02.709Z,48.13
2023-02-02T12:41:46.498Z,48.11
2023-02-02T12:44:26.411Z,47.75
2023-02-02T12:47:08.769Z,47.60
2023-02-02T12:50:03.292Z,47.90
2023-02-02T12:52:50.941Z,46.52
2023-02-02T12:55:30.436Z,41.08
2023-02-02T12:58:11.991Z,36.84
2023-02-02T13:01:14.052Z,34.77
2023-02-02T13:04:02.550Z,32.62
2023-02-02T13:06:56.842Z,31.43
2023-02-02T13:09:34.659Z,30.13
2023-02-02T13:12:10.431Z,30.56
2023-02-02T13:14:51.182Z,31.89
2023-02-02T13:17:26.457Z,32.33
2023-02-02T13:20:14.258Z,34.75
2023-02-02T13:22:50.696Z,35.17
2023-02-02T13:25:31.799Z,35.41
2023-02-02T13:28:03.512Z,35.99
2023-02-02T13:30:43.011Z,36.32
2023-02-02T13:33:21.804Z,36.18
2023-02-02T13:35:58.162Z,37.26
2023-02-02T13:38:30.960Z,38.64
2023-02-02T13:41:14.047Z,39.00
2023-02-02T13:43:54.103Z,40.09
2023-02-02T13:46:33.363Z,37.27
2023-02-02T13:49:10.940Z,33.50
2023-02-02T13:52:03.161Z,31.01
2023-02-02T13:54:59.217Z,28.80
2023-02-02T13:57:57.724Z,26.46
2023-02-02T14:00:33.692Z,24.64
2023-02-02T14:03:06.747Z,23.93
2023-02-02T14:05:39.786Z,23.96
2023-02-02T14:08:19.308Z,25.86
2023-02-02T14:11:02.613Z,27.54
2023-02-02T14:13:56.876Z,27.78
2023-02-02T14:16:44.836Z,29.40
2023-02-02T14:19:19.058Z,29.87
2023-02-02T14:22:20.123Z,30.09
2023-02-02T14:24:53.694Z,29.19
2023-02-02T14:27:58.739Z,28.87
2023-02-02T14:30:35.557Z,30.31
2023-02-02T14:33:27.749Z,32.00
2023-02-02T14:36:04.436Z,32.97
2023-02-02T14:38:58.958Z,33.81
2023-02-02T14:41:53.447Z,34.17
2023-02-02T14:44:24.110Z,34.24
2023-02-02T14:46:59.277Z,34.36
2023-02-02T14:49:35.576Z,34.32
2023-02-02T14:52:06.523Z,35.05
2023-02-02T14:54:40.310Z,35.88
2023-02-02T14:57:26.666Z,36.79
2023-02-02T15:00:01.199Z,36.92
2023-02-02T15:02:39.445Z,37.06
2023-02-02T15:05:39.192Z,37.25
2023-02-02T15:08:16.914Z,37.65
2023-02-02T15:11:01.550Z,37.96
2023-02-02T15:13:37.681Z,37.92
2023-02-02T15:16:15.349Z,38.40
2023-02-02T15:18:52.156Z,38.69
2023-02-02T15:21:24.204Z,39.57
2023-02-02T15:23:54.654Z,40.14
2023-02-02T15:26:28.773Z,41.32
2023-02-02T15:29:03.368Z,41.56
2023-02-02T15:31:39.655Z,42.17
2023-02-02T15:34:20.955Z,42.06
2023-02-02T15:36:54.626Z,42.51
2023-02-02T15:39:31.903Z,42.95
2023-02-02T15:42:17.832Z,43.01
2023-02-02T15:44:48.396Z,42.89
2023-02-02T15:47:22.961Z,43.02
2023-02-02T15:49:55.727Z,43.73
2023-02-02T15:52:29.406Z,43.82
2023-02-02T15:55:01.220Z,43.89
2023-02-02T15:57:34.558Z,44.33
2023-02-02T16:00:26.580Z,44.48
2023-02-02T16:03:02.618Z,44.55
2023-02-02T16:05:48.487Z,44.55
2023-02-02T16:08:26.400Z,44.67
2023-02-02T16:11:08.701Z,44.66
2023-02-02T16:13:40.345Z,44.33
2023-02-02T16:16:26.661Z,44.35
2023-02-02T16:19:14.628Z,44.48
2023-02-02T16:21:51.878Z,44.82
2023-02-02T16:24:26.938Z,44.92
2023-02-02T16:27:05.163Z,44.98
2023-02-02T16:29:39.244Z,44.97
2023-02-02T16:32:09.285Z,45.21
2023-02-02T16:34:50.259Z,45.59
2023-02-02T16:37:27.341Z,45.63
2023-02-02T16:39:58.247Z,45.65
2023-02-02T16:42:30.534Z,45.93
2023-02-02T16:45:01.649Z,45.96
2023-02-02T16:47:42.105Z,45.97
2023-02-02T16:50:35.812Z,46.16
2023-02-02T16:53:08.977Z,46.01
2023-02-02T16:55:50.493Z,46.25
2023-02-02T16:58:24.401Z,46.30
2023-02-02T17:01:14.007Z,46.40
2023-02-02T17:03:53.366Z,46.39
2023-02-02T17:06:45.934Z,46.57
2023-02-02T17:09:34.725Z,46.69
2023-02-02T17:12:16.657Z,46.58
2023-02-02T17:14:54.738Z,46.71
2023-02-02T17:17:25.037Z,46.84
2023-02-02T17:19:55.189Z,47.09
2023-02-02T17:22:27.696Z,47.21
2023-02-02T17:25:01.968Z,47.12
2023-02-02T17:27:35.095Z,47.22
2023-02-02T17:30:06.892Z,47.39
2023-02-02T17:32:36.944Z,47.33
2023-02-02T17:35:16.567Z,47.53
2023-02-02T17:37:46.848Z,47.35
2023-02-02T17:40:21.812Z,47.53
2023-02-02T17:42:54.618Z,47.58
2023-02-02T17:45:27.191Z,47.50
2023-02-02T17:47:57.424Z,47.72
2023-02-02T17:50:27.863Z,47.77
2023-02-02T17:52:58.474Z,47.65
2023-02-02T17:55:34.606Z,47.87
2023-02-02T17:58:04.689Z,47.83
2023-02-02T18:00:35.332Z,47.78
2023-02-02T18:03:16.578Z,48.14
2023-02-02T18:05:47.134Z,47.87
2023-02-02T18:08:17.567Z,48.11
2023-02-02T18:10:50.509Z,48.19
2023-02-02T18:13:22.959Z,48.51
2023-02-02T18:15:56.299Z,48.37
2023-02-02T18:18:27.435Z,48.31
2023-02-02T18:20:59.113Z,48.50
2023-02-02T18:23:29.477Z,48.38
2023-02-02T18:26:11.589Z,48.39
2023-02-02T18:28:41.768Z,48.32
2023-02-02T18:31:13.527Z,48.44
2023-02-02T18:33:44.208Z,48.56
2023-02-02T18:36:19.011Z,48.42
2023-02-02T18:38:51.207Z,48.61
2023-02-02T18:41:24.324Z,48.54
2023-02-02T18:43:57.063Z,48.58
2023-02-02T18:46:27.395Z,48.57
2023-02-02T18:48:58.518Z,49.06
2023-02-02T18:51:28.993Z,49.14
2023-02-02T18:54:00.486Z,49.21
2023-02-02T18:56:33.491Z,49.26
2023-02-02T18:59:03.767Z,49.24
2023-02-02T19:01:33.910Z,49.26
2023-02-02T19:04:04.373Z,49.13
2023-02-02T19:06:46.839Z,49.16
2023-02-02T19:09:17.507Z,49.26
2023-02-02T19:11:54.942Z,49.49
2023-02-02T19:14:27.341Z,49.38
2023-02-02T19:17:02.296Z,49.29
2023-02-02T19:19:35.516Z,49.47
2023-02-02T19:22:19.745Z,49.27
2023-02-02T19:24:51.061Z,49.48
2023-02-02T19:27:26.696Z,49.38
2023-02-02T19:29:59.965Z,49.53
2023-02-02T19:32:35.124Z,49.83
2023-02-02T19:35:05.889Z,49.77
2023-02-02T19:37:43.429Z,49.73
2023-02-02T19:40:26.611Z,49.96
2023-02-02T19:43:07.842Z,49.90
2023-02-02T19:45:39.775Z,49.91
2023-02-02T19:48:17.992Z,50.33
2023-02-02T19:50:48.934Z,50.24
2023-02-02T19:53:23.301Z,50.43
2023-02-02T19:55:54.448Z,50.74
2023-02-02T19:58:29.298Z,50.52
2023-02-02T20:01:00.781Z,50.61
2023-02-02T20:03:42.941Z,50.65
2023-02-02T20:06:15.834Z,50.83
2023-02-02T20:08:46.939Z,50.90
2023-02-02T20:11:32.485Z,50.87
2023-02-02T20:14:22.882Z,50.70
2023-02-02T20:16:55.647Z,50.79
2023-02-02T20:19:29.499Z,50.65
2023-02-02T20:22:00.085Z,51.11
2023-02-02T20:24:35.174Z,51.95
2023-02-02T20:27:16.251Z,52.13
2023-02-02T20:29:51.350Z,52.56
2023-02-02T20:32:26.372Z,52.49
2023-02-02T20:34:57.862Z,52.49
2023-02-02T20:37:30.903Z,52.23
2023-02-02T20:40:03.264Z,52.08
2023-02-02T20:42:33.857Z,52.22
2023-02-02T20:45:06.870Z,52.88
2023-02-02T20:47:38.508Z,53.16
2023-02-02T20:50:10.318Z,53.60
2023-02-02T20:52:40.715Z,53.75
2023-02-02T20:55:12.229Z,53.86
2023-02-02T20:57:42.394Z,53.97
2023-02-02T21:00:21.424Z,54.16
2023-02-02T21:02:52.155Z,54.37
2023-02-02T21:05:22.168Z,54.11
2023-02-02T21:07:55.030Z,54.48
2023-02-02T21:10:26.778Z,54.34
2023-02-02T21:12:57.026Z,54.48
2023-02-02T21:15:29.804Z,54.64
2023-02-02T21:17:59.819Z,54.50
2023-02-02T21:20:29.938Z,54.49
2023-02-02T21:23:00.044Z,54.49
2023-02-02T21:25:29.956Z,54.36
2023-02-02T21:28:00.411Z,53.99
2023-02-02T21:30:33.185Z,53.63
2023-02-02T21:33:03.312Z,53.26
2023-02-02T21:35:33.309Z,53.07
2023-02-02T21:38:10.004Z,53.10
2023-02-02T21:40:40.143Z,52.88
2023-02-02T21:43:17.408Z,52.87
2023-02-02T21:45:53.385Z,52.90
2023-02-02T21:48:32.818Z,53.12
2023-02-02T21:51:19.401Z,53.21
2023-02-02T21:53:49.424Z,53.06
2023-02-02T21:56:30.084Z,53.12
2023-02-02T21:59:02.364Z,52.88
2023-02-02T22:01:39.713Z,52.93
2023-02-02T22:04:18.791Z,52.83
2023-02-02T22:06:50.509Z,52.95
2023-02-02T22:09:23.689Z,53.47
2023-02-02T22:11:58.465Z,53.63
2023-02-02T22:14:35.865Z,53.70
2023-02-02T22:17:21.433Z,54.14
2023-02-02T22:19:53.976Z,54.64
2023-02-02T22:22:26.042Z,54.70
2023-02-02T22:25:01.805Z,55.02
2023-02-02T22:27:49.833Z,55.17
2023-02-02T22:30:28.756Z,55.30
2023-02-02T22:33:01.843Z,55.67
2023-02-02T22:35:32.060Z,55.98
2023-02-02T22:38:02.530Z,56.09
2023-02-02T22:40:33.378Z,56.66
2023-02-02T22:43:08.275Z,56.80
2023-02-02T22:45:38.420Z,56.96
2023-02-02T22:48:11.584Z,57.16
2023-02-02T22:50:41.797Z,57.35
2023-02-02T22:53:12.446Z,57.69
2023-02-02T22:55:43.467Z,57.57
2023-02-02T22:58:13.539Z,57.34
2023-02-02T23:00:43.510Z,57.09
2023-02-02T23:03:16.109Z,57.08
2023-02-02T23:05:46.082Z,57.01
2023-02-02T23:08:16.134Z,57.11
2023-02-02T23:10:46.065Z,57.25
2023-02-02T23:13:16.009Z,57.17
2023-02-02T23:15:46.068Z,57.07
2023-02-02T23:18:18.899Z,57.14
2023-02-02T23:20:49.059Z,56.94
2023-02-02T23:23:19.024Z,57.21
2023-02-02T23:25:49.081Z,57.02
2023-02-02T23:28:19.171Z,57.49
2023-02-02T23:30:49.575Z,57.89
2023-02-02T23:33:22.342Z,58.34
2023-02-02T23:35:52.319Z,58.42
2023-02-02T23:38:37.298Z,58.75
2023-02-02T23:41:07.501Z,59.14
2023-02-02T23:43:42.563Z,59.54
2023-02-02T23:46:14.195Z,59.70
2023-02-02T23:48:47.341Z,59.65
2023-02-02T23:51:17.736Z,59.88
2023-02-02T23:53:48.154Z,60.10
2023-02-02T23:56:18.481Z,60.29
2023-02-02T23:58:48.705Z,60.68
